FQMA/MPM METAR and TAF weather

Enter ICAO airport designator
Station Type Date Time Source
FQMA METAR 2020/02/25 00:00 UTC NOAA

FQMA 250000Z 24007KT 9999 BKN020 21/17 Q1019 NOSIG


Station Type Date Time Source
FQMA Decoded METAR 2020/02/25 00:00 UTC NOAA

Maputo / Mavalane, Mozambique (FQMA) 25-55S 032-34E 44M
Feb 24, 2020 - 07:00 PM EST / 2020.02.25 0000 UTC
Wind: from the WSW (240 degrees) at 8 MPH (7 KT):0
Visibility: greater than 7 mile(s):0
Sky conditions: mostly cloudy
Temperature: 69 F (21 C)
Dew Point: 62 F (17 C)
Relative Humidity: 77%
Pressure (altimeter): 30.09 in. Hg (1019 hPa)
ob: FQMA 250000Z 24007KT 9999 BKN020 21/17 Q1019 NOSIG
cycle: 0

Station Type Date Time Source
FQMA TAF 2020/02/24 18:15 UTC NOAA

TAF FQMA 241600Z 2418/2524 18008KT 9999 SCT020 TX28/2513Z TN19/2503Z
BECMG 2506/2508 13010KT
BECMG 2512/2514 05010KT
BECMG 2512/2514 05010KT
BECMG 2518/2520 35008KT

Example: see airport list